createdAt,value
2023-03-02T04:54:27.429Z,100833.78
2023-03-02T04:57:29.872Z,100838.31
2023-03-02T05:00:34.027Z,100836.41
2023-03-02T05:03:36.544Z,100834.44
2023-03-02T05:06:39.199Z,100836.41
2023-03-02T05:09:41.583Z,100843.06
2023-03-02T05:13:02.330Z,100841.41
2023-03-02T05:16:05.188Z,100839.78
2023-03-02T05:19:09.603Z,100838.56
2023-03-02T05:22:12.022Z,100842.03
2023-03-02T05:25:14.532Z,100838.66
2023-03-02T05:28:17.566Z,100847.59
2023-03-02T05:31:23.489Z,100841.97
2023-03-02T05:34:25.911Z,100846.78
2023-03-02T05:37:28.016Z,100849.12
2023-03-02T05:40:31.661Z,100855.22
2023-03-02T05:43:33.896Z,100847.13
2023-03-02T05:46:37.053Z,100848.81
2023-03-02T05:49:39.226Z,100853.72
2023-03-02T05:52:42.099Z,100859.63
2023-03-02T05:55:44.222Z,100858.00
2023-03-02T05:58:46.601Z,100873.19
2023-03-02T06:01:49.812Z,100865.09
2023-03-02T06:04:52.263Z,100858.47
2023-03-02T06:07:54.722Z,100860.72
2023-03-02T06:10:57.158Z,100873.47
2023-03-02T06:13:59.299Z,100872.09
2023-03-02T06:17:02.341Z,100866.91
2023-03-02T06:20:10.214Z,100868.69
2023-03-02T06:23:12.728Z,100868.44
2023-03-02T06:26:14.934Z,100868.88
2023-03-02T06:29:17.471Z,100865.91
2023-03-02T06:32:19.716Z,100873.63
2023-03-02T06:35:23.868Z,100869.31
2023-03-02T06:38:26.150Z,100880.72
2023-03-02T06:41:28.531Z,100875.44
2023-03-02T06:44:30.703Z,100886.66
2023-03-02T06:47:33.825Z,100873.72
2023-03-02T06:50:35.987Z,100868.91
2023-03-02T06:53:38.440Z,100875.09
2023-03-02T06:56:41.180Z,100877.44
2023-03-02T06:59:43.629Z,100880.38
2023-03-02T07:02:46.211Z,100879.56
2023-03-02T07:05:49.704Z,100872.00
2023-03-02T07:08:51.948Z,100877.16
2023-03-02T07:11:54.402Z,100874.84
2023-03-02T07:14:56.547Z,100877.06
2023-03-02T07:17:58.953Z,100870.72
2023-03-02T07:21:01.363Z,100869.81
2023-03-02T07:24:03.830Z,100864.69
2023-03-02T07:27:05.975Z,100874.13
2023-03-02T07:30:09.341Z,100866.06
2023-03-02T07:33:11.456Z,100866.56
2023-03-02T07:36:13.876Z,100870.06
2023-03-02T07:39:15.990Z,100870.38
2023-03-02T07:42:18.540Z,100869.97
2023-03-02T07:45:24.763Z,100863.19
2023-03-02T07:48:27.112Z,100866.88
2023-03-02T07:51:29.235Z,100861.78
2023-03-02T07:54:31.699Z,100860.63
2023-03-02T07:57:35.010Z,100862.88
2023-03-02T08:00:37.450Z,100857.13
2023-03-02T08:03:39.913Z,100861.28
2023-03-02T08:06:42.687Z,100859.72
2023-03-02T08:09:45.155Z,100859.78
2023-03-02T08:12:47.251Z,100862.78
2023-03-02T08:15:49.773Z,100867.50
2023-03-02T08:18:53.536Z,100861.28
2023-03-02T08:21:56.187Z,100864.06
2023-03-02T08:24:58.296Z,100867.25
2023-03-02T08:28:00.714Z,100857.66
2023-03-02T08:31:03.596Z,100856.59
2023-03-02T08:34:06.146Z,100851.38
2023-03-02T08:37:08.266Z,100853.22
2023-03-02T08:40:11.281Z,100854.19
2023-03-02T08:43:13.393Z,100850.94
2023-03-02T08:46:18.217Z,100851.34
2023-03-02T08:49:20.601Z,100835.25
2023-03-02T08:52:23.032Z,100840.13
2023-03-02T08:55:25.210Z,100837.72
2023-03-02T08:58:28.278Z,100838.66
2023-03-02T09:01:36.365Z,100834.78
2023-03-02T09:04:39.353Z,100833.81
2023-03-02T09:07:41.545Z,100829.09
2023-03-02T09:10:44.032Z,100836.25
2023-03-02T09:13:46.230Z,100828.12
2023-03-02T09:16:49.135Z,100829.87
2023-03-02T09:19:51.378Z,100819.56
2023-03-02T09:22:53.851Z,100821.53
2023-03-02T09:25:56.290Z,100811.22
2023-03-02T09:28:58.868Z,100814.03
2023-03-02T09:32:01.229Z,100814.31
2023-03-02T09:35:04.003Z,100814.44
2023-03-02T09:38:07.048Z,100811.50
2023-03-02T09:41:18.980Z,100812.63
2023-03-02T09:44:49.303Z,100811.09
2023-03-02T09:48:05.299Z,100807.41
2023-03-02T09:51:25.851Z,100804.13
2023-03-02T09:54:28.795Z,100801.22
2023-03-02T09:57:38.508Z,100804.91
2023-03-02T10:00:43.947Z,100800.09
2023-03-02T10:04:08.736Z,100797.69
2023-03-02T10:07:17.256Z,100791.75
2023-03-02T10:10:42.841Z,100785.44
2023-03-02T10:13:50.861Z,100786.97
2023-03-02T10:17:22.882Z,100789.75
2023-03-02T10:20:35.220Z,100787.34
2023-03-02T10:23:49.737Z,100790.72
2023-03-02T10:27:10.897Z,100789.09
2023-03-02T10:30:27.729Z,100780.81
2023-03-02T10:33:33.603Z,100781.00
2023-03-02T10:36:39.768Z,100781.56
2023-03-02T10:39:42.050Z,100779.06
2023-03-02T10:42:44.682Z,100768.81
2023-03-02T10:45:59.850Z,100773.47
2023-03-02T10:49:03.121Z,100770.66
2023-03-02T10:52:17.282Z,100761.94
2023-03-02T10:55:19.690Z,100759.75
2023-03-02T10:58:22.258Z,100752.19
2023-03-02T11:01:24.750Z,100749.84
2023-03-02T11:04:27.052Z,100748.13
2023-03-02T11:07:29.778Z,100737.53
2023-03-02T11:10:40.879Z,100738.44
2023-03-02T11:13:43.350Z,100744.12
2023-03-02T11:16:45.965Z,100733.72
2023-03-02T11:19:48.637Z,100728.53
2023-03-02T11:23:02.478Z,100731.28
2023-03-02T11:26:37.347Z,100728.97
2023-03-02T11:29:49.945Z,100727.53
2023-03-02T11:33:07.867Z,100723.12
2023-03-02T11:36:20.486Z,100723.12
2023-03-02T11:39:32.301Z,100723.12
2023-03-02T11:42:37.357Z,100714.81
2023-03-02T11:45:46.636Z,100715.66
2023-03-02T11:48:52.678Z,100707.81
2023-03-02T11:51:59.578Z,100709.81
2023-03-02T11:55:13.333Z,100702.94
2023-03-02T11:58:25.321Z,100696.78
2023-03-02T12:01:28.729Z,100706.59
2023-03-02T12:04:37.361Z,100696.25
2023-03-02T12:07:39.512Z,100705.00
2023-03-02T12:10:56.338Z,100691.66
2023-03-02T12:14:01.995Z,100690.91
2023-03-02T12:17:24.282Z,100691.31
2023-03-02T12:20:34.693Z,100686.25
2023-03-02T12:23:58.693Z,100688.97
2023-03-02T12:27:25.542Z,100680.28
2023-03-02T12:30:28.400Z,100678.66
2023-03-02T12:33:30.708Z,100678.63
2023-03-02T12:36:43.124Z,100673.38
2023-03-02T12:40:10.238Z,100672.56
2023-03-02T12:43:18.681Z,100670.81
2023-03-02T12:46:32.567Z,100664.69
2023-03-02T12:49:46.767Z,100658.63
2023-03-02T12:53:00.335Z,100659.50
2023-03-02T12:56:02.814Z,100658.84
2023-03-02T12:59:05.187Z,100651.78
2023-03-02T13:02:17.308Z,100651.91
2023-03-02T13:05:24.146Z,100646.72
2023-03-02T13:08:29.252Z,100644.88
2023-03-02T13:11:34.011Z,100636.25
2023-03-02T13:14:40.424Z,100637.97
2023-03-02T13:17:43.940Z,100628.34
2023-03-02T13:20:47.236Z,100634.59
2023-03-02T13:23:52.253Z,100620.56
2023-03-02T13:27:01.997Z,100621.25
2023-03-02T13:30:22.601Z,100616.06
2023-03-02T13:33:26.608Z,100619.69
2023-03-02T13:36:39.132Z,100612.66
2023-03-02T13:39:41.594Z,100607.34
2023-03-02T13:42:43.699Z,100602.00
2023-03-02T13:45:57.729Z,100594.97
2023-03-02T13:49:10.260Z,100594.91
2023-03-02T13:52:29.332Z,100594.91
2023-03-02T13:55:31.700Z,100590.38
2023-03-02T13:58:38.442Z,100586.13
2023-03-02T14:01:44.376Z,100585.31
2023-03-02T14:04:46.887Z,100572.25
2023-03-02T14:07:49.131Z,100563.59
2023-03-02T14:10:54.139Z,100560.16
2023-03-02T14:13:56.310Z,100558.53
2023-03-02T14:16:58.707Z,100557.72
2023-03-02T14:20:00.824Z,100553.31
2023-03-02T14:23:06.868Z,100554.06
2023-03-02T14:26:18.066Z,100547.00
2023-03-02T14:29:27.295Z,100553.97
2023-03-02T14:32:29.556Z,100546.09
2023-03-02T14:35:32.136Z,100553.06
2023-03-02T14:38:34.644Z,100554.84
2023-03-02T14:41:52.614Z,100551.38
2023-03-02T14:44:55.786Z,100547.00
2023-03-02T14:47:58.206Z,100547.03
2023-03-02T14:51:03.996Z,100541.72
2023-03-02T14:54:11.669Z,100539.06
2023-03-02T14:57:18.662Z,100536.31
2023-03-02T15:00:21.824Z,100543.38
2023-03-02T15:03:25.718Z,100547.66
2023-03-02T15:06:31.292Z,100533.69
2023-03-02T15:09:33.487Z,100536.22
2023-03-02T15:12:36.041Z,100536.28
2023-03-02T15:15:38.603Z,100535.41
2023-03-02T15:18:41.145Z,100533.59
2023-03-02T15:21:45.442Z,100538.87
2023-03-02T15:24:47.863Z,100532.66
2023-03-02T15:27:50.294Z,100538.78
2023-03-02T15:30:52.687Z,100537.81
2023-03-02T15:33:55.756Z,100538.69
2023-03-02T15:36:58.168Z,100541.31
2023-03-02T15:40:00.301Z,100545.56
2023-03-02T15:43:02.897Z,100555.00
2023-03-02T15:46:06.519Z,100551.41
2023-03-02T15:49:09.357Z,100552.37
2023-03-02T15:52:12.326Z,100547.84
2023-03-02T15:55:15.577Z,100546.09
2023-03-02T15:58:18.646Z,100549.37
2023-03-02T16:01:21.109Z,100554.50
2023-03-02T16:04:23.540Z,100557.03
2023-03-02T16:07:25.708Z,100562.31
2023-03-02T16:10:31.818Z,100558.72
2023-03-02T16:13:34.798Z,100560.16
2023-03-02T16:16:37.966Z,100555.41
2023-03-02T16:19:40.259Z,100564.72
2023-03-02T16:22:42.632Z,100554.94
2023-03-02T16:25:45.024Z,100569.56
2023-03-02T16:28:48.301Z,100566.81
2023-03-02T16:31:50.508Z,100568.31
2023-03-02T16:34:55.102Z,100564.69
2023-03-02T16:37:57.341Z,100566.28
2023-03-02T16:40:59.770Z,100576.56
2023-03-02T16:44:02.393Z,100576.34
2023-03-02T16:47:05.122Z,100586.69
2023-03-02T16:50:07.969Z,100588.28
